Time;durP1;ratioP1;P1;durP2;ratioP2;P2;SDS_P1;SDS_P2;PMS_P1;PMS_P2;Temp;Humidity;BMP_temperature;BMP_pressure;BME280_temperature;BME280_humidity;BME280_pressure;Samples;Min_cycle;Max_cycle;Signal;HPM_P1;HPM_P2
2021/12/20 00:01:41;;;;;;;2.72;2.25;;;;;;;;;;5042532;28;20029;-58
2021/12/20 00:04:07;;;;;;;4.80;2.70;;;;;;;;;;5042817;28;20043;-53
2021/12/20 00:06:32;;;;;;;4.20;2.30;;;;;;;;;;5041474;28;20449;-52
2021/12/20 00:08:58;;;;;;;3.65;2.55;;;;;;;;;;5037601;28;20037;-53
2021/12/20 00:11:23;;;;;;;2.53;2.28;;;;;;;;;;5041517;28;20033;-51
2021/12/20 00:13:49;;;;;;;3.42;2.20;;;;;;;;;;5042610;28;20063;-54
2021/12/20 00:16:14;;;;;;;6.60;2.95;;;;;;;;;;5041962;28;20020;-54
2021/12/20 00:18:42;;;;;;;3.95;2.55;;;;;;;;;;5039863;28;20429;-56
2021/12/20 00:21:07;;;;;;;4.55;2.83;;;;;;;;;;5044117;28;20408;-53
2021/12/20 00:23:33;;;;;;;3.63;2.97;;;;;;;;;;5042961;28;20021;-51
2021/12/20 00:25:58;;;;;;;5.15;2.83;;;;;;;;;;5041818;28;20924;-54
2021/12/20 00:28:24;;;;;;;3.88;2.65;;;;;;;;;;5041887;28;20028;-53
2021/12/20 00:30:50;;;;;;;3.58;2.60;;;;;;;;;;5042365;28;20040;-53
2021/12/20 00:33:17;;;;;;;4.13;3.08;;;;;;;;;;5042846;28;20037;-58
2021/12/20 00:35:42;;;;;;;4.38;2.85;;;;;;;;;;5036616;28;20155;-54
2021/12/20 00:40:52;;;;;;;4.10;3.00;;;;;;;;;;5042821;28;20102;-53
2021/12/20 00:43:17;;;;;;;4.55;3.13;;;;;;;;;;5042223;28;20041;-50
2021/12/20 00:45:43;;;;;;;3.70;2.67;;;;;;;;;;5040017;28;20025;-55
2021/12/20 00:48:09;;;;;;;5.50;3.33;;;;;;;;;;5044347;28;20055;-52
2021/12/20 00:50:36;;;;;;;4.22;2.63;;;;;;;;;;5040185;28;20020;-52
2021/12/20 00:53:02;;;;;;;5.25;3.20;;;;;;;;;;5042001;28;20143;-56
2021/12/20 00:55:28;;;;;;;4.13;3.00;;;;;;;;;;5040581;28;20100;-52
2021/12/20 00:57:57;;;;;;;6.28;3.28;;;;;;;;;;5043262;28;21322;-53
2021/12/20 01:00:28;;;;;;;5.45;3.30;;;;;;;;;;5043864;28;20067;-55
2021/12/20 01:02:54;;;;;;;4.57;3.25;;;;;;;;;;5043308;28;20028;-52
2021/12/20 01:05:22;;;;;;;4.88;3.15;;;;;;;;;;5042270;28;20044;-52
2021/12/20 01:07:48;;;;;;;4.65;3.15;;;;;;;;;;5042593;28;20025;-53
2021/12/20 01:10:13;;;;;;;4.18;3.10;;;;;;;;;;5042778;28;20052;-56
2021/12/20 01:12:49;;;;;;;3.80;2.85;;;;;;;;;;5041053;28;20098;-54
2021/12/20 01:15:18;;;;;;;4.43;2.90;;;;;;;;;;5042532;28;20072;-55
2021/12/20 01:17:44;;;;;;;4.45;2.65;;;;;;;;;;5041305;28;20044;-53
2021/12/20 01:20:10;;;;;;;5.60;3.28;;;;;;;;;;5041958;28;20041;-57
2021/12/20 01:22:36;;;;;;;4.20;2.88;;;;;;;;;;5040595;28;20029;-54
2021/12/20 01:25:02;;;;;;;4.53;2.90;;;;;;;;;;5042398;28;20083;-52
2021/12/20 01:27:27;;;;;;;4.07;2.75;;;;;;;;;;5045892;28;20287;-55
2021/12/20 01:29:53;;;;;;;3.45;2.72;;;;;;;;;;5046166;28;20033;-55
2021/12/20 01:32:18;;;;;;;4.53;2.75;;;;;;;;;;5044416;28;20037;-52
2021/12/20 01:34:43;;;;;;;5.15;2.85;;;;;;;;;;5046568;28;20032;-52
2021/12/20 01:37:09;;;;;;;4.35;2.67;;;;;;;;;;5046684;28;20117;-56
2021/12/20 01:39:34;;;;;;;4.30;2.75;;;;;;;;;;5044161;28;20028;-53
2021/12/20 01:42:02;;;;;;;3.10;2.60;;;;;;;;;;5044134;28;20665;-55
2021/12/20 01:44:30;;;;;;;4.85;2.97;;;;;;;;;;5045483;28;20071;-52
2021/12/20 01:46:55;;;;;;;3.88;2.78;;;;;;;;;;5045844;28;20028;-51
2021/12/20 01:49:21;;;;;;;6.78;3.28;;;;;;;;;;5044847;28;20071;-52
2021/12/20 01:52:01;;;;;;;4.57;2.90;;;;;;;;;;5045144;28;20358;-52
2021/12/20 01:54:27;;;;;;;5.03;2.97;;;;;;;;;;5046307;28;20052;-52
2021/12/20 01:56:52;;;;;;;5.70;3.30;;;;;;;;;;5045074;28;20495;-55
2021/12/20 01:59:17;;;;;;;3.88;2.75;;;;;;;;;;5047156;28;21578;-55
2021/12/20 02:01:45;;;;;;;5.38;2.90;;;;;;;;;;5045791;28;20445;-52
2021/12/20 02:04:12;;;;;;;2.92;2.60;;;;;;;;;;5045692;28;20072;-50
2021/12/20 02:06:39;;;;;;;4.28;3.38;;;;;;;;;;5043472;28;20029;-56
2021/12/20 02:09:06;;;;;;;4.95;2.92;;;;;;;;;;5043538;28;20091;-53
2021/12/20 02:11:32;;;;;;;3.97;2.67;;;;;;;;;;5045066;28;20037;-52
2021/12/20 02:13:58;;;;;;;4.20;3.03;;;;;;;;;;5043577;28;20467;-51
2021/12/20 02:16:24;;;;;;;4.15;3.00;;;;;;;;;;5045785;28;20050;-55
2021/12/20 02:18:50;;;;;;;4.38;2.80;;;;;;;;;;5044015;28;20041;-56
2021/12/20 02:21:15;;;;;;;6.35;3.03;;;;;;;;;;5045019;28;20024;-53
2021/12/20 02:23:41;;;;;;;4.97;3.22;;;;;;;;;;5044896;28;20518;-53
2021/12/20 02:26:07;;;;;;;4.47;3.00;;;;;;;;;;5044855;28;20545;-54
2021/12/20 02:28:40;;;;;;;3.90;2.85;;;;;;;;;;5044935;28;20381;-51
2021/12/20 02:38:57;;;;;;;3.60;2.25;;;;;;;;;;5044588;28;20108;-55
2021/12/20 02:41:28;;;;;;;4.50;2.95;;;;;;;;;;5045431;28;20163;-53
2021/12/20 02:43:57;;;;;;;3.78;2.70;;;;;;;;;;5044599;28;20028;-56
2021/12/20 02:49:12;;;;;;;4.15;2.67;;;;;;;;;;5042520;28;20037;-55
2021/12/20 02:51:38;;;;;;;8.02;3.20;;;;;;;;;;5044591;28;20480;-54
2021/12/20 02:54:06;;;;;;;4.82;2.70;;;;;;;;;;5025394;28;20028;-51
2021/12/20 02:56:32;;;;;;;4.07;2.55;;;;;;;;;;5044151;28;20593;-57
2021/12/20 02:58:58;;;;;;;4.43;2.60;;;;;;;;;;5043968;28;20128;-57
2021/12/20 03:01:24;;;;;;;5.78;2.80;;;;;;;;;;5025103;28;20037;-55
2021/12/20 03:03:51;;;;;;;3.17;2.45;;;;;;;;;;5045131;28;20091;-52
2021/12/20 03:06:35;;;;;;;4.03;2.63;;;;;;;;;;5044840;28;20116;-53
2021/12/20 03:09:01;;;;;;;6.30;2.70;;;;;;;;;;5042002;28;20043;-52
2021/12/20 03:11:27;;;;;;;4.63;2.72;;;;;;;;;;5043199;28;20127;-56
2021/12/20 03:14:04;;;;;;;4.38;3.00;;;;;;;;;;5043555;28;20487;-53
2021/12/20 03:16:30;;;;;;;5.45;2.25;;;;;;;;;;5043800;28;20029;-51
2021/12/20 03:18:55;;;;;;;6.82;2.70;;;;;;;;;;5043726;28;20036;-57
2021/12/20 03:21:20;;;;;;;4.07;2.63;;;;;;;;;;5042740;28;20596;-54
2021/12/20 03:23:47;;;;;;;5.30;2.50;;;;;;;;;;5043878;28;20193;-55
2021/12/20 03:26:12;;;;;;;6.40;2.60;;;;;;;;;;5043912;28;20029;-55
2021/12/20 03:28:37;;;;;;;4.82;2.30;;;;;;;;;;5042828;28;20595;-55
2021/12/20 03:31:03;;;;;;;6.47;2.30;;;;;;;;;;5044263;28;20029;-53
2021/12/20 03:33:28;;;;;;;5.40;2.40;;;;;;;;;;5044826;28;20029;-53
2021/12/20 03:35:54;;;;;;;6.38;2.50;;;;;;;;;;5026472;28;20023;-58
2021/12/20 03:38:19;;;;;;;3.85;2.40;;;;;;;;;;5044696;28;20055;-56
2021/12/20 03:40:44;;;;;;;3.05;1.98;;;;;;;;;;5042732;28;20567;-58
2021/12/20 03:43:12;;;;;;;4.35;2.70;;;;;;;;;;5043209;28;20102;-57
2021/12/20 03:45:37;;;;;;;6.20;2.45;;;;;;;;;;5041751;28;20065;-58
2021/12/20 03:48:03;;;;;;;6.10;2.08;;;;;;;;;;5043054;28;20056;-57
2021/12/20 03:50:29;;;;;;;5.72;2.63;;;;;;;;;;5044145;28;20033;-58
2021/12/20 03:52:54;;;;;;;3.05;2.00;;;;;;;;;;5043418;28;20094;-57
2021/12/20 03:55:19;;;;;;;3.33;2.30;;;;;;;;;;5041672;28;20037;-56
2021/12/20 03:57:45;;;;;;;7.13;2.65;;;;;;;;;;5042603;28;20096;-58
2021/12/20 04:00:13;;;;;;;6.80;2.47;;;;;;;;;;5044416;28;20075;-54
2021/12/20 04:02:43;;;;;;;4.95;2.63;;;;;;;;;;5044034;28;20025;-56
2021/12/20 04:05:10;;;;;;;4.25;1.95;;;;;;;;;;5044105;28;20029;-58
2021/12/20 04:07:35;;;;;;;4.85;2.00;;;;;;;;;;5040766;28;21511;-57
2021/12/20 04:10:01;;;;;;;4.22;1.60;;;;;;;;;;5044048;28;20028;-56
2021/12/20 04:12:26;;;;;;;5.13;1.88;;;;;;;;;;5026210;28;20060;-59
2021/12/20 04:14:51;;;;;;;4.13;1.88;;;;;;;;;;5043904;28;20112;-57
2021/12/20 04:17:17;;;;;;;5.68;1.55;;;;;;;;;;5043838;28;21034;-55
2021/12/20 04:19:43;;;;;;;6.20;1.50;;;;;;;;;;5043531;28;20039;-58
2021/12/20 04:22:08;;;;;;;4.47;1.40;;;;;;;;;;5042292;28;20029;-58
2021/12/20 04:24:34;;;;;;;6.90;1.60;;;;;;;;;;5043005;28;20593;-58
2021/12/20 04:26:59;;;;;;;6.35;1.85;;;;;;;;;;5042058;28;20025;-58
2021/12/20 04:29:27;;;;;;;5.50;2.13;;;;;;;;;;5043333;28;20431;-55
2021/12/20 04:31:52;;;;;;;6.10;1.42;;;;;;;;;;5044516;28;20047;-58
2021/12/20 04:34:18;;;;;;;2.45;1.10;;;;;;;;;;5041123;28;20360;-59
2021/12/20 04:36:43;;;;;;;6.82;1.48;;;;;;;;;;5043209;28;20024;-56
2021/12/20 04:39:13;;;;;;;4.97;1.33;;;;;;;;;;5043108;28;20028;-58
2021/12/20 04:41:39;;;;;;;10.18;1.83;;;;;;;;;;5041649;28;20441;-60
2021/12/20 04:44:05;;;;;;;5.72;1.20;;;;;;;;;;5041366;28;20029;-59
2021/12/20 04:46:31;;;;;;;6.20;1.92;;;;;;;;;;5042317;28;20060;-59
2021/12/20 04:48:56;;;;;;;8.95;4.10;;;;;;;;;;5040430;28;20060;-59
2021/12/20 04:51:22;;;;;;;3.28;1.33;;;;;;;;;;5041693;28;20470;-59
2021/12/20 04:53:47;;;;;;;4.93;1.52;;;;;;;;;;5042416;28;20111;-59
2021/12/20 04:56:13;;;;;;;5.63;1.55;;;;;;;;;;5041183;28;20036;-56
2021/12/20 04:58:38;;;;;;;7.72;1.83;;;;;;;;;;5042181;28;20021;-55
2021/12/20 05:01:05;;;;;;;5.32;1.67;;;;;;;;;;5039305;28;20033;-59
2021/12/20 05:03:30;;;;;;;6.78;1.73;;;;;;;;;;5043347;28;20068;-58
2021/12/20 05:05:56;;;;;;;8.02;1.95;;;;;;;;;;5041484;28;20481;-58
2021/12/20 05:08:21;;;;;;;3.10;1.23;;;;;;;;;;5041261;28;20101;-58
2021/12/20 05:10:47;;;;;;;4.32;1.60;;;;;;;;;;5040137;28;20028;-57
2021/12/20 05:13:13;;;;;;;7.07;2.00;;;;;;;;;;5041869;28;20121;-63
2021/12/20 05:15:39;;;;;;;6.63;1.73;;;;;;;;;;5040373;28;20111;-60
2021/12/20 05:18:07;;;;;;;8.95;1.35;;;;;;;;;;5042035;28;20031;-60
2021/12/20 05:20:33;;;;;;;10.15;1.73;;;;;;;;;;5042809;28;20038;-60
2021/12/20 05:23:01;;;;;;;7.28;2.00;;;;;;;;;;5040689;28;20028;-56
2021/12/20 05:25:27;;;;;;;6.68;1.52;;;;;;;;;;5040422;28;21062;-58
2021/12/20 05:27:53;;;;;;;6.72;1.85;;;;;;;;;;5041761;28;20017;-58
2021/12/20 05:30:20;;;;;;;8.70;1.70;;;;;;;;;;5041758;28;20397;-61
2021/12/20 05:32:45;;;;;;;5.57;1.52;;;;;;;;;;5041314;28;20190;-60
2021/12/20 05:35:13;;;;;;;7.85;1.90;;;;;;;;;;5039531;28;20053;-59
2021/12/20 05:37:39;;;;;;;8.55;1.58;;;;;;;;;;5040497;28;20252;-59
2021/12/20 05:40:06;;;;;;;7.93;1.33;;;;;;;;;;5041609;28;20090;-57
2021/12/20 05:42:32;;;;;;;6.43;1.40;;;;;;;;;;5041083;28;20025;-60
2021/12/20 05:44:57;;;;;;;9.95;1.90;;;;;;;;;;5041396;28;20082;-60
2021/12/20 05:47:23;;;;;;;7.55;1.40;;;;;;;;;;5040155;28;20036;-59
2021/12/20 05:49:49;;;;;;;6.47;1.60;;;;;;;;;;5039324;28;20041;-58
2021/12/20 05:52:15;;;;;;;7.05;1.75;;;;;;;;;;5040366;28;20174;-60
2021/12/20 05:54:40;;;;;;;5.53;1.55;;;;;;;;;;5040996;28;20116;-59
2021/12/20 05:57:06;;;;;;;5.10;1.50;;;;;;;;;;5039941;28;20036;-57
2021/12/20 05:59:32;;;;;;;7.38;1.45;;;;;;;;;;5040835;28;20028;-59
2021/12/20 06:01:57;;;;;;;10.38;2.00;;;;;;;;;;5041142;28;20036;-57
2021/12/20 06:04:22;;;;;;;8.50;1.63;;;;;;;;;;5042433;28;20421;-58
2021/12/20 06:06:48;;;;;;;10.00;1.75;;;;;;;;;;5040427;28;20040;-59
2021/12/20 06:09:13;;;;;;;8.10;1.98;;;;;;;;;;5039193;28;20039;-58
2021/12/20 06:11:39;;;;;;;7.03;1.70;;;;;;;;;;5042165;28;20086;-56
2021/12/20 06:14:05;;;;;;;10.23;2.05;;;;;;;;;;5043980;28;20369;-60
2021/12/20 06:16:30;;;;;;;8.75;1.90;;;;;;;;;;5044757;28;20017;-58
2021/12/20 06:18:56;;;;;;;5.38;1.77;;;;;;;;;;5045797;28;20036;-55
2021/12/20 06:21:21;;;;;;;6.05;1.88;;;;;;;;;;5046014;28;20033;-59
2021/12/20 06:23:47;;;;;;;12.68;2.08;;;;;;;;;;5044940;28;20112;-60
2021/12/20 06:26:12;;;;;;;9.52;1.95;;;;;;;;;;5044091;28;20186;-58
2021/12/20 06:28:38;;;;;;;7.53;1.80;;;;;;;;;;5045199;28;20029;-58
2021/12/20 06:31:04;;;;;;;8.88;2.20;;;;;;;;;;5044961;28;20047;-58
2021/12/20 06:33:29;;;;;;;11.95;2.33;;;;;;;;;;5046341;28;20031;-57
2021/12/20 06:35:55;;;;;;;8.23;2.40;;;;;;;;;;5044535;28;20055;-57
2021/12/20 06:38:22;;;;;;;7.80;2.15;;;;;;;;;;5044114;28;20028;-58
2021/12/20 06:40:49;;;;;;;6.60;1.88;;;;;;;;;;5046269;28;20057;-58
2021/12/20 06:43:15;;;;;;;12.55;2.10;;;;;;;;;;5045857;28;20032;-57
2021/12/20 06:45:41;;;;;;;5.88;1.63;;;;;;;;;;5045058;28;20092;-59
2021/12/20 06:48:07;;;;;;;9.75;2.53;;;;;;;;;;5044251;28;20146;-58
2021/12/20 06:50:33;;;;;;;4.72;1.70;;;;;;;;;;5044672;28;20049;-59
2021/12/20 06:52:58;;;;;;;10.32;2.33;;;;;;;;;;5045872;28;20594;-60
2021/12/20 06:55:24;;;;;;;7.22;2.20;;;;;;;;;;5043495;28;20037;-58
2021/12/20 06:57:49;;;;;;;8.35;1.83;;;;;;;;;;5044010;28;20433;-53
2021/12/20 07:00:15;;;;;;;9.07;2.25;;;;;;;;;;5043590;28;20025;-58
2021/12/20 07:02:40;;;;;;;7.95;2.17;;;;;;;;;;5044821;28;20321;-59
2021/12/20 07:05:06;;;;;;;10.90;2.15;;;;;;;;;;5046787;28;20033;-58
2021/12/20 07:07:32;;;;;;;14.07;2.40;;;;;;;;;;5041787;28;20074;-59
2021/12/20 07:09:57;;;;;;;6.90;2.15;;;;;;;;;;5043814;28;20024;-57
2021/12/20 07:12:23;;;;;;;7.28;1.73;;;;;;;;;;5044442;28;20029;-58
2021/12/20 07:14:50;;;;;;;5.53;2.13;;;;;;;;;;5043369;28;20345;-58
2021/12/20 07:17:17;;;;;;;8.15;2.33;;;;;;;;;;5044748;28;20034;-55
2021/12/20 07:19:43;;;;;;;8.90;2.38;;;;;;;;;;5043718;28;20071;-57
2021/12/20 07:22:08;;;;;;;7.53;2.70;;;;;;;;;;5044360;28;20473;-56
2021/12/20 07:24:33;;;;;;;10.32;1.90;;;;;;;;;;5043004;28;20029;-58
2021/12/20 07:26:59;;;;;;;8.70;2.05;;;;;;;;;;5043757;28;20021;-56
2021/12/20 07:29:24;;;;;;;11.75;2.28;;;;;;;;;;5044391;28;20450;-57
2021/12/20 07:31:50;;;;;;;8.65;2.33;;;;;;;;;;5044184;28;20033;-59
2021/12/20 07:34:15;;;;;;;11.13;2.42;;;;;;;;;;5024480;28;20045;-58
2021/12/20 07:36:41;;;;;;;9.90;2.22;;;;;;;;;;5043901;28;20495;-58
2021/12/20 07:39:07;;;;;;;12.07;2.60;;;;;;;;;;5043522;28;20048;-57
2021/12/20 07:41:32;;;;;;;7.55;2.38;;;;;;;;;;5043592;28;20811;-59
2021/12/20 07:43:58;;;;;;;9.88;2.60;;;;;;;;;;5043510;28;20090;-59
2021/12/20 07:46:23;;;;;;;11.15;2.55;;;;;;;;;;5042156;28;20151;-53
2021/12/20 07:48:49;;;;;;;14.13;2.65;;;;;;;;;;5044452;28;20039;-58
2021/12/20 07:51:15;;;;;;;13.05;2.50;;;;;;;;;;5042581;28;20700;-57
2021/12/20 07:53:41;;;;;;;8.98;2.45;;;;;;;;;;5044433;28;20056;-58
2021/12/20 07:56:07;;;;;;;10.95;2.92;;;;;;;;;;5043716;28;20072;-58
2021/12/20 07:58:32;;;;;;;16.13;2.88;;;;;;;;;;5043738;28;20029;-53
2021/12/20 08:00:58;;;;;;;9.07;2.53;;;;;;;;;;5044332;28;20422;-58
2021/12/20 08:03:24;;;;;;;9.80;2.83;;;;;;;;;;5041472;28;20017;-56
2021/12/20 08:05:50;;;;;;;13.98;2.67;;;;;;;;;;5044513;28;20574;-58
2021/12/20 08:08:15;;;;;;;9.52;2.60;;;;;;;;;;5044147;28;20059;-58
2021/12/20 08:10:41;;;;;;;13.77;2.92;;;;;;;;;;5044940;28;20112;-58
2021/12/20 08:13:08;;;;;;;9.35;1.85;;;;;;;;;;5044317;28;20029;-56
2021/12/20 08:15:33;;;;;;;10.73;2.42;;;;;;;;;;5045027;28;20025;-59
2021/12/20 08:17:59;;;;;;;10.35;2.22;;;;;;;;;;5044794;28;21358;-54
2021/12/20 08:20:24;;;;;;;13.07;2.45;;;;;;;;;;5043291;28;20345;-55
2021/12/20 08:22:50;;;;;;;6.00;1.70;;;;;;;;;;5043210;28;20033;-61
2021/12/20 08:25:18;;;;;;;12.07;2.92;;;;;;;;;;5043705;28;20402;-58
2021/12/20 08:27:43;;;;;;;11.15;2.20;;;;;;;;;;5024842;28;20064;-56
2021/12/20 08:30:09;;;;;;;11.75;2.45;;;;;;;;;;5043288;28;20107;-53
2021/12/20 08:32:36;;;;;;;9.98;2.05;;;;;;;;;;5042495;28;20051;-58
2021/12/20 08:35:02;;;;;;;14.15;2.00;;;;;;;;;;5042815;28;20507;-57
2021/12/20 08:37:28;;;;;;;14.15;2.83;;;;;;;;;;5043768;28;20060;-53
2021/12/20 08:39:53;;;;;;;9.25;2.13;;;;;;;;;;5042686;28;20507;-58
2021/12/20 08:42:19;;;;;;;9.23;2.13;;;;;;;;;;5044419;28;20079;-58
2021/12/20 08:44:44;;;;;;;10.02;1.98;;;;;;;;;;5040720;28;20025;-58
2021/12/20 08:47:10;;;;;;;13.00;2.63;;;;;;;;;;5042429;28;20477;-56
2021/12/20 08:49:35;;;;;;;11.07;2.20;;;;;;;;;;5043748;28;20037;-57
2021/12/20 08:52:01;;;;;;;15.52;2.58;;;;;;;;;;5041355;28;20028;-57
2021/12/20 08:54:30;;;;;;;12.57;2.15;;;;;;;;;;5043671;28;20032;-57
2021/12/20 08:56:56;;;;;;;14.05;2.55;;;;;;;;;;5041761;28;20021;-55
2021/12/20 08:59:22;;;;;;;14.18;2.20;;;;;;;;;;5022794;28;20900;-56
2021/12/20 09:01:47;;;;;;;11.75;2.03;;;;;;;;;;5040256;28;20087;-55
2021/12/20 09:04:13;;;;;;;20.92;2.60;;;;;;;;;;5043046;28;20489;-55
2021/12/20 09:06:40;;;;;;;12.13;1.98;;;;;;;;;;5037742;28;20025;-55
2021/12/20 09:09:08;;;;;;;12.98;1.80;;;;;;;;;;5042022;28;20598;-60
2021/12/20 09:11:33;;;;;;;11.35;1.85;;;;;;;;;;5043611;28;20039;-58
2021/12/20 09:13:59;;;;;;;12.60;2.50;;;;;;;;;;5041628;28;20029;-59
2021/12/20 09:16:25;;;;;;;12.52;2.17;;;;;;;;;;5041776;28;20069;-57
2021/12/20 09:18:50;;;;;;;14.88;2.10;;;;;;;;;;5043276;28;20555;-58
2021/12/20 09:21:16;;;;;;;9.00;1.98;;;;;;;;;;5039485;28;20044;-56
2021/12/20 09:23:42;;;;;;;9.40;2.05;;;;;;;;;;5041302;28;20029;-52
2021/12/20 09:26:07;;;;;;;12.50;1.70;;;;;;;;;;5040807;28;20057;-57
2021/12/20 09:28:34;;;;;;;21.80;2.90;;;;;;;;;;5041180;28;20160;-53
2021/12/20 09:31:01;;;;;;;8.63;1.40;;;;;;;;;;5042369;28;20540;-58
2021/12/20 09:33:27;;;;;;;9.38;2.08;;;;;;;;;;5041210;28;20020;-57
2021/12/20 09:35:53;;;;;;;6.82;1.50;;;;;;;;;;5043197;28;20052;-56
2021/12/20 09:38:20;;;;;;;11.30;1.70;;;;;;;;;;5040463;28;20039;-57
2021/12/20 09:43:30;;;;;;;9.27;1.30;;;;;;;;;;5043073;28;20067;-56
2021/12/20 09:45:57;;;;;;;10.93;1.73;;;;;;;;;;5041628;28;20442;-56
2021/12/20 09:48:25;;;;;;;11.20;2.03;;;;;;;;;;5046565;28;20040;-55
2021/12/20 09:50:50;;;;;;;8.90;1.95;;;;;;;;;;5045306;28;20048;-58
2021/12/20 09:53:16;;;;;;;7.85;1.30;;;;;;;;;;5046473;28;20040;-55
2021/12/20 09:55:47;;;;;;;5.25;1.70;;;;;;;;;;5046145;28;20037;-54
2021/12/20 09:58:13;;;;;;;11.85;1.52;;;;;;;;;;5045616;28;20059;-59
2021/12/20 10:00:39;;;;;;;10.63;1.38;;;;;;;;;;5044283;28;20057;-54
2021/12/20 10:03:05;;;;;;;10.48;1.58;;;;;;;;;;5044151;28;20330;-58
2021/12/20 10:05:32;;;;;;;13.43;1.42;;;;;;;;;;5045664;28;20028;-58
2021/12/20 10:08:01;;;;;;;5.03;1.10;;;;;;;;;;5046719;28;20059;-59
2021/12/20 10:10:43;;;;;;;7.70;1.73;;;;;;;;;;5045635;28;20029;-56
2021/12/20 10:13:39;;;;;;;7.95;1.30;;;;;;;;;;5043991;28;20035;-54
2021/12/20 10:16:18;;;;;;;7.28;1.52;;;;;;;;;;5044735;28;20435;-54
2021/12/20 10:18:44;;;;;;;6.85;1.20;;;;;;;;;;5044467;28;20053;-55
2021/12/20 10:21:09;;;;;;;7.15;1.10;;;;;;;;;;5046594;28;20174;-53
2021/12/20 10:23:40;;;;;;;7.40;1.33;;;;;;;;;;5045786;28;20033;-57
2021/12/20 10:26:19;;;;;;;7.80;1.27;;;;;;;;;;5044201;28;20078;-58
2021/12/20 10:28:45;;;;;;;11.00;1.52;;;;;;;;;;5044348;28;20373;-57
2021/12/20 10:31:14;;;;;;;10.15;2.10;;;;;;;;;;5045399;28;20086;-57
2021/12/20 10:33:49;;;;;;;7.22;1.33;;;;;;;;;;5045510;28;20040;-56
2021/12/20 10:36:14;;;;;;;6.30;1.15;;;;;;;;;;5041652;28;20095;-57
2021/12/20 10:38:42;;;;;;;4.13;0.93;;;;;;;;;;5046615;28;20032;-55
2021/12/20 10:41:22;;;;;;;3.85;0.90;;;;;;;;;;5044780;28;20033;-58
2021/12/20 10:43:53;;;;;;;6.28;0.63;;;;;;;;;;5044349;28;21250;-59
2021/12/20 10:46:26;;;;;;;9.57;1.15;;;;;;;;;;5045366;28;20635;-57
2021/12/20 10:49:03;;;;;;;7.57;0.95;;;;;;;;;;5047093;28;20143;-58
2021/12/20 10:51:31;;;;;;;3.83;0.60;;;;;;;;;;5043698;28;20134;-57
2021/12/20 10:54:02;;;;;;;4.13;0.82;;;;;;;;;;5043900;28;20037;-55
2021/12/20 10:57:00;;;;;;;5.18;1.00;;;;;;;;;;5046360;28;20032;-57
2021/12/20 10:59:28;;;;;;;3.47;0.70;;;;;;;;;;5044226;28;20045;-56
2021/12/20 11:04:34;;;;;;;3.25;0.73;;;;;;;;;;5045252;28;20159;-58
2021/12/20 11:09:46;;;;;;;6.82;1.13;;;;;;;;;;5044504;28;20035;-55
2021/12/20 11:12:19;;;;;;;1.83;0.50;;;;;;;;;;5046006;28;20060;-57
2021/12/20 11:14:48;;;;;;;2.38;0.45;;;;;;;;;;5047075;28;20084;-60
2021/12/20 11:17:16;;;;;;;3.28;0.70;;;;;;;;;;5045445;28;20040;-59
2021/12/20 11:19:46;;;;;;;2.83;0.50;;;;;;;;;;5043154;28;20032;-60
2021/12/20 11:22:20;;;;;;;2.08;0.47;;;;;;;;;;5045501;28;20067;-59
2021/12/20 11:24:51;;;;;;;4.32;0.68;;;;;;;;;;5045862;28;20037;-59
2021/12/20 11:27:19;;;;;;;3.65;0.63;;;;;;;;;;5044327;28;20032;-58
2021/12/20 11:29:46;;;;;;;4.10;0.63;;;;;;;;;;5045130;28;20556;-56
2021/12/20 11:32:12;;;;;;;1.95;0.50;;;;;;;;;;5041247;28;20462;-58
2021/12/20 11:34:41;;;;;;;5.65;0.77;;;;;;;;;;5045569;28;20025;-59
2021/12/20 11:37:07;;;;;;;5.88;1.17;;;;;;;;;;5042638;28;20040;-58
2021/12/20 11:39:32;;;;;;;5.35;1.45;;;;;;;;;;5044904;28;20030;-54
2021/12/20 11:41:58;;;;;;;3.58;1.10;;;;;;;;;;5042542;28;20033;-55
2021/12/20 11:44:28;;;;;;;5.30;0.80;;;;;;;;;;5044899;28;20033;-57
2021/12/20 11:47:21;;;;;;;4.40;1.15;;;;;;;;;;5045487;28;20192;-55
2021/12/20 11:49:58;;;;;;;4.05;0.63;;;;;;;;;;5044215;28;20068;-55
2021/12/20 11:52:28;;;;;;;4.72;0.90;;;;;;;;;;5045777;28;20122;-50
2021/12/20 11:54:54;;;;;;;4.68;0.63;;;;;;;;;;5043938;28;20403;-54
2021/12/20 11:57:28;;;;;;;7.43;0.80;;;;;;;;;;5045490;28;20124;-57
2021/12/20 11:59:57;;;;;;;6.43;1.02;;;;;;;;;;5042985;28;20429;-57
2021/12/20 12:02:26;;;;;;;3.63;1.08;;;;;;;;;;5043663;28;20086;-56
2021/12/20 12:05:04;;;;;;;4.78;1.10;;;;;;;;;;5043847;28;20049;-52
2021/12/20 12:07:35;;;;;;;4.85;1.00;;;;;;;;;;5043679;28;20035;-58
2021/12/20 12:10:07;;;;;;;2.47;0.63;;;;;;;;;;5024445;28;20384;-54
2021/12/20 12:12:39;;;;;;;5.90;0.65;;;;;;;;;;5043504;28;20071;-55
2021/12/20 12:15:11;;;;;;;1.77;0.60;;;;;;;;;;5044522;28;20028;-55
2021/12/20 12:18:04;;;;;;;5.18;0.93;;;;;;;;;;5043028;28;20036;-55
2021/12/20 12:20:59;;;;;;;2.42;0.80;;;;;;;;;;5042908;28;20035;-57
2021/12/20 12:23:26;;;;;;;2.33;0.57;;;;;;;;;;5025346;28;20055;-56
2021/12/20 12:25:56;;;;;;;3.72;0.60;;;;;;;;;;5042104;28;20478;-62
2021/12/20 12:28:27;;;;;;;2.78;0.60;;;;;;;;;;5040562;28;20047;-57
2021/12/20 12:31:07;;;;;;;1.95;0.38;;;;;;;;;;5041604;28;20055;-58
2021/12/20 12:33:40;;;;;;;0.57;0.20;;;;;;;;;;5041419;28;20028;-53
2021/12/20 12:36:22;;;;;;;1.55;0.30;;;;;;;;;;5043913;28;20028;-55
2021/12/20 12:38:47;;;;;;;2.35;0.30;;;;;;;;;;5044007;28;20040;-52
2021/12/20 12:41:21;;;;;;;2.22;0.40;;;;;;;;;;5043778;28;20049;-54
2021/12/20 12:43:49;;;;;;;2.17;0.55;;;;;;;;;;5038768;28;20147;-56
2021/12/20 12:46:40;;;;;;;3.08;0.50;;;;;;;;;;5036527;28;20048;-51
2021/12/20 12:49:36;;;;;;;1.23;0.40;;;;;;;;;;5001174;28;20196;-58
2021/12/20 12:52:25;;;;;;;3.05;0.35;;;;;;;;;;5022691;28;20068;-57
2021/12/20 12:54:57;;;;;;;0.95;0.40;;;;;;;;;;5034779;28;20669;-54
2021/12/20 12:57:22;;;;;;;0.77;0.40;;;;;;;;;;5043859;28;20116;-55
2021/12/20 12:59:47;;;;;;;0.68;0.38;;;;;;;;;;5041315;28;20119;-57
2021/12/20 13:02:28;;;;;;;3.17;0.80;;;;;;;;;;5042950;28;20028;-56
2021/12/20 13:04:53;;;;;;;1.55;0.50;;;;;;;;;;5041421;28;20072;-52
2021/12/20 13:07:20;;;;;;;2.47;0.40;;;;;;;;;;5040929;28;20055;-55
2021/12/20 13:09:47;;;;;;;1.58;0.50;;;;;;;;;;5040050;28;20045;-53
2021/12/20 13:12:33;;;;;;;1.35;0.50;;;;;;;;;;5042621;28;20497;-55
2021/12/20 13:15:11;;;;;;;2.78;0.60;;;;;;;;;;5043623;28;20139;-56
2021/12/20 13:17:42;;;;;;;4.30;1.00;;;;;;;;;;5042556;28;20059;-56
2021/12/20 13:20:30;;;;;;;3.85;0.55;;;;;;;;;;5042453;28;20497;-56
2021/12/20 13:23:05;;;;;;;1.95;0.50;;;;;;;;;;5041595;28;20405;-60
2021/12/20 13:25:43;;;;;;;2.25;0.50;;;;;;;;;;5041823;28;20067;-57
2021/12/20 13:28:30;;;;;;;2.58;0.50;;;;;;;;;;5038542;28;20060;-55
2021/12/20 13:30:59;;;;;;;5.53;0.82;;;;;;;;;;5041496;28;20032;-56
2021/12/20 13:33:26;;;;;;;0.60;0.30;;;;;;;;;;5043461;28;20573;-56
2021/12/20 13:35:53;;;;;;;1.02;0.32;;;;;;;;;;5043053;28;20070;-58
2021/12/20 13:38:34;;;;;;;1.10;0.40;;;;;;;;;;5042415;28;20041;-57
2021/12/20 13:41:11;;;;;;;2.70;0.50;;;;;;;;;;5042800;28;20028;-56
2021/12/20 13:43:42;;;;;;;2.50;0.45;;;;;;;;;;5042072;28;20396;-54
2021/12/20 13:46:31;;;;;;;3.00;0.40;;;;;;;;;;5042855;28;20044;-54
2021/12/20 13:49:23;;;;;;;2.08;0.45;;;;;;;;;;5039658;28;21390;-60
2021/12/20 13:52:03;;;;;;;1.65;0.40;;;;;;;;;;5031405;28;20033;-55
2021/12/20 13:54:40;;;;;;;6.40;0.80;;;;;;;;;;5028212;28;20024;-57
2021/12/20 13:57:24;;;;;;;1.80;0.52;;;;;;;;;;5035789;28;20036;-56
2021/12/20 13:59:51;;;;;;;1.90;0.60;;;;;;;;;;5034107;28;20029;-59
2021/12/20 14:02:28;;;;;;;3.80;0.68;;;;;;;;;;5036621;28;20028;-57
2021/12/20 14:05:08;;;;;;;5.72;0.80;;;;;;;;;;5033900;28;20100;-58
2021/12/20 14:07:41;;;;;;;1.98;0.68;;;;;;;;;;5042754;28;20150;-57
2021/12/20 14:10:09;;;;;;;3.53;0.77;;;;;;;;;;5040659;28;20024;-55
2021/12/20 14:12:40;;;;;;;2.13;0.68;;;;;;;;;;5040783;28;20032;-58
2021/12/20 14:15:06;;;;;;;2.08;0.70;;;;;;;;;;5041767;28;20032;-54
2021/12/20 14:18:07;;;;;;;3.63;0.80;;;;;;;;;;5042434;28;20523;-57
2021/12/20 14:20:36;;;;;;;1.55;0.60;;;;;;;;;;5042567;28;20076;-53
2021/12/20 14:23:02;;;;;;;3.40;0.70;;;;;;;;;;5042135;28;20040;-59
2021/12/20 14:25:30;;;;;;;4.13;0.80;;;;;;;;;;5043547;28;20151;-54
2021/12/20 14:28:01;;;;;;;1.88;0.57;;;;;;;;;;5023381;28;20424;-57
2021/12/20 14:30:26;;;;;;;2.33;0.60;;;;;;;;;;4941708;28;20151;-53
2021/12/20 14:32:52;;;;;;;1.58;0.47;;;;;;;;;;329294;28;10022731;-56
2021/12/20 14:35:31;;;;;;;3.97;0.90;;;;;;;;;;5045007;28;20033;-55
2021/12/20 14:37:59;;;;;;;2.00;0.70;;;;;;;;;;5044291;28;20044;-54
2021/12/20 14:40:42;;;;;;;3.53;0.60;;;;;;;;;;5044954;28;20024;-55
2021/12/20 14:43:11;;;;;;;5.05;0.82;;;;;;;;;;5027775;28;20055;-55
2021/12/20 14:45:37;;;;;;;7.32;0.90;;;;;;;;;;5044224;28;20044;-56
2021/12/20 14:48:32;;;;;;;12.88;1.20;;;;;;;;;;5045184;28;20377;-54
2021/12/20 14:50:58;;;;;;;6.88;0.75;;;;;;;;;;5045519;28;20041;-53
2021/12/20 14:53:26;;;;;;;8.70;1.17;;;;;;;;;;5040919;28;20071;-52
2021/12/20 14:55:53;;;;;;;8.27;1.48;;;;;;;;;;5045141;28;20057;-56
2021/12/20 14:58:21;;;;;;;9.25;1.30;;;;;;;;;;5043433;28;20028;-56
2021/12/20 15:00:47;;;;;;;7.30;1.20;;;;;;;;;;5044432;28;20967;-56
2021/12/20 15:03:16;;;;;;;17.25;1.40;;;;;;;;;;5045335;28;20120;-56
2021/12/20 15:05:45;;;;;;;5.32;1.30;;;;;;;;;;5044161;28;21494;-55
2021/12/20 15:08:12;;;;;;;12.55;1.10;;;;;;;;;;5042829;28;20430;-53
2021/12/20 15:10:37;;;;;;;18.08;1.98;;;;;;;;;;5043348;28;20024;-58